createdAt,value
2017-11-30T00:01:15.997Z,17.13
2017-11-30T00:03:43.550Z,20.67
2017-11-30T00:06:11.113Z,18.27
2017-11-30T00:08:38.665Z,19.60
2017-11-30T00:11:06.208Z,23.13
2017-11-30T00:13:33.760Z,22.87
2017-11-30T00:16:01.313Z,25.53
2017-11-30T00:18:28.875Z,30.23
2017-11-30T00:20:56.442Z,20.40
2017-11-30T00:23:24.000Z,24.13
2017-11-30T00:25:51.530Z,27.13
2017-11-30T00:28:19.852Z,23.73
2017-11-30T00:30:47.392Z,23.60
2017-11-30T00:33:14.956Z,25.77
2017-11-30T00:35:42.499Z,20.77
2017-11-30T00:38:10.807Z,29.87
2017-11-30T00:40:38.374Z,30.43
2017-11-30T00:43:17.659Z,21.70
2017-11-30T00:45:45.185Z,24.10
2017-11-30T00:48:12.724Z,29.47
2017-11-30T00:50:40.289Z,23.27
2017-11-30T00:53:07.825Z,20.20
2017-11-30T00:55:35.393Z,26.30
2017-11-30T00:58:02.927Z,26.00
2017-11-30T01:00:31.246Z,29.17
2017-11-30T01:02:59.549Z,28.97
2017-11-30T01:05:27.103Z,24.90
2017-11-30T01:07:54.623Z,22.00
2017-11-30T01:10:22.184Z,30.30
2017-11-30T01:12:49.720Z,27.37
2017-11-30T01:15:18.040Z,29.10
2017-11-30T01:17:45.579Z,22.53
2017-11-30T01:20:13.135Z,24.50
2017-11-30T01:22:40.675Z,23.73
2017-11-30T01:25:09.007Z,24.33
2017-11-30T01:27:36.544Z,27.80
2017-11-30T01:30:04.109Z,21.00
2017-11-30T01:32:31.640Z,23.50
2017-11-30T01:34:59.969Z,20.80
2017-11-30T01:37:27.494Z,22.37
2017-11-30T01:39:55.055Z,21.40
2017-11-30T01:42:22.588Z,18.30
2017-11-30T01:44:50.913Z,16.37
2017-11-30T01:47:18.446Z,20.47
2017-11-30T01:49:45.999Z,20.20
2017-11-30T01:52:13.546Z,15.33
2017-11-30T01:54:41.875Z,20.90
2017-11-30T01:57:09.407Z,21.03
2017-11-30T01:59:36.967Z,19.97
2017-11-30T02:02:04.501Z,24.37
2017-11-30T02:04:32.820Z,20.53
2017-11-30T02:07:00.364Z,22.30
2017-11-30T02:09:27.924Z,18.40
2017-11-30T02:11:55.466Z,18.63
2017-11-30T02:14:23.032Z,17.40
2017-11-30T02:16:50.571Z,28.50
2017-11-30T02:19:18.896Z,17.27
2017-11-30T02:21:46.428Z,18.63
2017-11-30T02:24:14.283Z,21.37
2017-11-30T02:26:42.585Z,20.80
2017-11-30T02:29:10.468Z,23.83
2017-11-30T02:31:38.012Z,29.30
2017-11-30T02:34:05.577Z,23.77
2017-11-30T02:36:33.137Z,29.03
2017-11-30T02:39:00.678Z,23.80
2017-11-30T02:41:28.256Z,29.33
2017-11-30T02:43:55.796Z,25.10
2017-11-30T02:46:24.096Z,26.93
2017-11-30T02:48:51.656Z,24.73
2017-11-30T02:51:19.203Z,24.30
2017-11-30T02:53:46.796Z,28.10
2017-11-30T02:56:14.337Z,28.53
2017-11-30T02:58:41.879Z,26.67
2017-11-30T03:01:09.437Z,25.97
2017-11-30T03:03:36.972Z,27.70
2017-11-30T03:06:05.328Z,27.17
2017-11-30T03:08:32.860Z,28.10
2017-11-30T03:11:00.384Z,29.60
2017-11-30T03:13:27.949Z,27.07
2017-11-30T03:15:55.484Z,26.57
2017-11-30T03:18:40.249Z,26.07
2017-11-30T03:21:07.778Z,17.67
2017-11-30T03:23:35.317Z,20.33
2017-11-30T03:26:02.884Z,20.70
2017-11-30T03:28:30.421Z,20.07
2017-11-30T03:30:58.016Z,22.87
2017-11-30T03:33:25.564Z,17.87
2017-11-30T03:35:53.096Z,24.50
2017-11-30T03:38:27.760Z,23.90
2017-11-30T03:40:55.790Z,22.33
2017-11-30T03:43:23.630Z,20.13
2017-11-30T03:45:51.936Z,21.50
2017-11-30T03:48:19.466Z,18.73
2017-11-30T03:50:47.796Z,27.35
2017-11-30T03:53:15.336Z,22.77
2017-11-30T03:55:42.925Z,21.50
2017-11-30T03:58:10.487Z,13.25
2017-11-30T04:00:38.013Z,13.30
2017-11-30T04:03:05.572Z,40.33
2017-11-30T04:05:33.116Z,29.63
2017-11-30T04:08:01.433Z,13.67
2017-11-30T04:10:28.972Z,15.60
2017-11-30T04:12:56.513Z,15.77
2017-11-30T04:15:24.846Z,17.60
2017-11-30T04:17:52.376Z,15.27
2017-11-30T04:20:19.947Z,14.40
2017-11-30T04:22:47.491Z,18.43
2017-11-30T04:25:15.031Z,19.43
2017-11-30T04:27:43.356Z,21.80
2017-11-30T04:30:10.885Z,25.53
2017-11-30T04:32:38.469Z,20.00
2017-11-30T04:35:06.006Z,31.27
2017-11-30T04:37:33.544Z,23.23
2017-11-30T04:40:01.860Z,18.87
2017-11-30T04:42:29.384Z,18.10
2017-11-30T04:44:57.722Z,15.10
2017-11-30T04:47:25.258Z,19.10
2017-11-30T04:49:52.804Z,24.93
2017-11-30T04:52:20.354Z,17.63
2017-11-30T04:54:47.886Z,18.87
2017-11-30T04:57:16.208Z,20.83
2017-11-30T04:59:43.740Z,22.90
2017-11-30T05:02:12.068Z,24.13
2017-11-30T05:04:39.611Z,18.47
2017-11-30T05:07:07.144Z,23.30
2017-11-30T05:09:34.718Z,23.80
2017-11-30T05:12:02.263Z,25.40
2017-11-30T05:14:29.823Z,29.80
2017-11-30T05:16:57.356Z,19.50
2017-11-30T05:19:24.919Z,26.57
2017-11-30T05:21:53.270Z,22.97
2017-11-30T05:24:20.814Z,25.40
2017-11-30T05:26:48.421Z,20.10
2017-11-30T05:29:16.751Z,24.67
2017-11-30T05:31:44.308Z,25.13
2017-11-30T05:34:12.054Z,24.50
2017-11-30T05:36:39.615Z,22.53
2017-11-30T05:39:07.193Z,21.73
2017-11-30T05:41:34.777Z,24.12
2017-11-30T05:44:02.324Z,24.53
2017-11-30T05:46:29.919Z,21.00
2017-11-30T05:48:58.380Z,23.43
2017-11-30T05:51:25.919Z,21.50
2017-11-30T05:53:53.472Z,26.07
2017-11-30T05:56:21.004Z,31.30
2017-11-30T05:58:48.567Z,28.10
2017-11-30T06:01:16.139Z,26.50
2017-11-30T06:03:43.693Z,27.93
2017-11-30T06:06:11.229Z,29.50
2017-11-30T06:08:39.556Z,26.67
2017-11-30T06:11:07.129Z,28.93
2017-11-30T06:13:34.668Z,36.33
2017-11-30T06:16:02.233Z,30.90
2017-11-30T06:18:29.776Z,30.97
2017-11-30T06:20:57.336Z,34.33
2017-11-30T06:23:24.884Z,33.33
2017-11-30T06:25:52.448Z,30.40
2017-11-30T06:28:19.987Z,33.97
2017-11-30T06:51:38.433Z,41.90
2017-11-30T06:54:06.000Z,52.10
2017-11-30T06:56:33.544Z,42.20
2017-11-30T06:59:01.122Z,39.83
2017-11-30T07:01:28.669Z,37.23
2017-11-30T07:03:56.232Z,34.70
2017-11-30T07:06:23.785Z,41.87
2017-11-30T07:08:51.351Z,35.77
2017-11-30T07:11:18.896Z,34.70
2017-11-30T07:13:46.472Z,36.70
2017-11-30T07:16:14.028Z,36.90
2017-11-30T07:18:41.605Z,43.07
2017-11-30T07:21:09.151Z,41.57
2017-11-30T07:23:36.735Z,33.53
2017-11-30T07:26:04.268Z,41.60
2017-11-30T07:28:31.829Z,37.40
2017-11-30T07:30:59.357Z,32.30
2017-11-30T07:33:26.927Z,32.43
2017-11-30T07:35:54.460Z,32.10
2017-11-30T07:38:22.800Z,34.50
2017-11-30T07:40:50.334Z,40.30
2017-11-30T07:43:17.889Z,32.77
2017-11-30T07:45:46.234Z,33.80
2017-11-30T07:48:14.546Z,36.33
2017-11-30T07:50:42.110Z,35.07
2017-11-30T07:53:09.657Z,33.20
2017-11-30T07:55:37.232Z,33.07
2017-11-30T07:58:04.779Z,32.27
2017-11-30T08:00:32.343Z,34.97
2017-11-30T08:02:59.904Z,36.63
2017-11-30T08:05:27.482Z,33.87
2017-11-30T08:07:55.029Z,38.63
2017-11-30T08:10:22.604Z,38.50
2017-11-30T08:12:50.129Z,35.60
2017-11-30T08:15:17.691Z,41.47
2017-11-30T08:17:45.225Z,39.47
2017-11-30T08:20:13.569Z,33.13
2017-11-30T08:22:41.112Z,43.43
2017-11-30T08:25:08.672Z,37.40
2017-11-30T08:27:36.204Z,35.50
2017-11-30T08:30:03.768Z,38.70
2017-11-30T08:32:31.321Z,37.80
2017-11-30T08:34:58.875Z,35.60
2017-11-30T08:37:26.411Z,36.47
2017-11-30T08:39:54.735Z,49.80
2017-11-30T08:42:22.279Z,52.63
2017-11-30T08:44:49.804Z,42.97
2017-11-30T08:47:18.133Z,38.70
2017-11-30T08:49:45.674Z,46.90
2017-11-30T08:52:13.244Z,48.67
2017-11-30T08:54:40.801Z,40.87
2017-11-30T08:57:08.355Z,42.53
2017-11-30T08:59:35.892Z,45.63
2017-11-30T09:02:04.217Z,42.93
2017-11-30T09:04:31.757Z,41.20
2017-11-30T09:06:59.320Z,40.97
2017-11-30T09:09:26.852Z,43.70
2017-11-30T09:11:55.180Z,41.10
2017-11-30T09:14:22.715Z,41.83
2017-11-30T09:16:50.279Z,35.73
2017-11-30T09:19:17.816Z,40.17
2017-11-30T09:21:45.381Z,39.57
2017-11-30T09:24:12.917Z,42.80
2017-11-30T09:26:41.985Z,40.70
2017-11-30T09:29:09.521Z,42.07
2017-11-30T09:31:37.095Z,40.60
2017-11-30T09:34:04.637Z,43.60
2017-11-30T09:36:32.200Z,45.33
2017-11-30T09:38:59.744Z,50.60
2017-11-30T09:41:27.296Z,46.73
2017-11-30T09:43:54.852Z,41.20
2017-11-30T09:46:22.395Z,43.50
2017-11-30T09:48:50.717Z,45.47
2017-11-30T09:51:18.257Z,40.17
2017-11-30T09:53:45.811Z,40.10
2017-11-30T09:56:13.341Z,39.20
2017-11-30T09:58:40.899Z,41.93
2017-11-30T10:01:09.193Z,42.63
2017-11-30T10:03:37.512Z,45.20
2017-11-30T10:06:05.052Z,39.80
2017-11-30T10:08:32.616Z,38.80
2017-11-30T10:11:00.148Z,41.10
2017-11-30T10:13:28.471Z,41.50
2017-11-30T10:15:56.000Z,46.43
2017-11-30T10:18:23.561Z,43.77
2017-11-30T10:20:51.103Z,44.03
2017-11-30T10:23:19.425Z,40.33
2017-11-30T10:25:46.973Z,33.23
2017-11-30T10:28:14.536Z,36.00
2017-11-30T10:30:42.064Z,40.53
2017-11-30T10:33:10.388Z,38.03
2017-11-30T10:35:37.929Z,33.90
2017-11-30T10:38:05.480Z,31.07
2017-11-30T10:40:33.031Z,33.67
2017-11-30T10:43:00.615Z,37.77
2017-11-30T10:45:28.160Z,33.37
2017-11-30T10:47:55.693Z,30.33
2017-11-30T10:50:24.014Z,30.13
2017-11-30T10:52:51.565Z,30.60
2017-11-30T10:55:19.134Z,29.30
2017-11-30T10:57:46.667Z,32.83
2017-11-30T11:00:14.232Z,32.27
2017-11-30T11:02:41.781Z,29.17
2017-11-30T11:05:09.335Z,29.17
2017-11-30T11:07:37.634Z,33.60
2017-11-30T11:10:05.192Z,27.40
2017-11-30T11:12:32.733Z,31.70
2017-11-30T11:15:00.293Z,34.63
2017-11-30T11:17:27.838Z,32.07
2017-11-30T11:19:56.168Z,34.37
2017-11-30T11:22:23.707Z,29.73
2017-11-30T11:24:51.274Z,23.57
2017-11-30T11:27:18.817Z,22.87
2017-11-30T11:29:46.380Z,22.57
2017-11-30T11:32:13.921Z,21.20
2017-11-30T11:34:42.248Z,20.33
2017-11-30T11:37:09.784Z,15.97
2017-11-30T11:39:37.348Z,16.00
2017-11-30T11:42:04.883Z,18.60
2017-11-30T11:44:32.472Z,10.80
2017-11-30T11:47:00.000Z,15.27
2017-11-30T11:49:28.295Z,15.40
2017-11-30T11:51:55.860Z,17.00
2017-11-30T11:54:23.399Z,13.70
2017-11-30T11:56:51.721Z,12.67
2017-11-30T11:59:19.251Z,11.17
2017-11-30T12:01:46.811Z,11.80
2017-11-30T12:04:14.356Z,11.77
2017-11-30T12:06:42.678Z,9.30
2017-11-30T12:09:10.222Z,10.70
2017-11-30T12:11:37.787Z,10.00
2017-11-30T12:14:05.324Z,18.20
2017-11-30T12:16:32.892Z,10.73
2017-11-30T12:19:00.419Z,11.63
2017-11-30T12:21:28.745Z,17.03
2017-11-30T12:23:56.285Z,19.03
2017-11-30T12:26:23.840Z,16.63
2017-11-30T12:28:51.378Z,17.57
2017-11-30T12:31:19.712Z,16.00
2017-11-30T12:33:47.249Z,13.40
2017-11-30T12:36:14.809Z,12.67
2017-11-30T12:38:42.354Z,12.93
2017-11-30T12:41:09.913Z,14.10
2017-11-30T12:43:38.195Z,11.83
2017-11-30T12:46:05.743Z,8.27
2017-11-30T12:48:34.040Z,10.40
2017-11-30T12:51:01.576Z,10.40
2017-11-30T12:53:29.901Z,10.20
2017-11-30T12:55:57.428Z,8.37
2017-11-30T12:58:24.990Z,8.83
2017-11-30T13:00:52.525Z,10.00
2017-11-30T13:03:20.854Z,6.70
2017-11-30T13:05:48.382Z,9.70
2017-11-30T13:08:15.935Z,9.67
2017-11-30T13:10:43.475Z,8.40
2017-11-30T13:13:11.799Z,9.87
2017-11-30T13:15:39.334Z,10.07
2017-11-30T13:18:06.890Z,10.27
2017-11-30T13:20:35.178Z,12.17
2017-11-30T13:23:02.735Z,8.90
2017-11-30T13:25:30.267Z,8.77
2017-11-30T13:27:58.594Z,13.50
2017-11-30T13:30:26.142Z,14.30
2017-11-30T13:32:53.718Z,7.37
2017-11-30T13:35:21.250Z,9.90
2017-11-30T13:37:48.803Z,11.10
2017-11-30T13:40:16.350Z,10.00
2017-11-30T13:42:44.674Z,10.00
2017-11-30T13:45:12.207Z,10.17
2017-11-30T13:47:39.767Z,14.43
2017-11-30T13:50:07.294Z,13.50
2017-11-30T13:52:34.880Z,12.37
2017-11-30T13:55:03.195Z,12.40
2017-11-30T13:57:30.763Z,11.40
2017-11-30T13:59:58.335Z,17.37
2017-11-30T14:02:25.895Z,12.97
2017-11-30T14:04:53.472Z,12.50
2017-11-30T14:07:21.808Z,16.53
2017-11-30T14:09:49.369Z,9.70
2017-11-30T14:12:16.922Z,13.47
2017-11-30T14:14:44.483Z,16.33
2017-11-30T14:17:12.062Z,17.37
2017-11-30T14:19:39.634Z,15.03
2017-11-30T14:22:07.181Z,16.90
2017-11-30T14:24:34.745Z,17.73
2017-11-30T14:27:02.286Z,19.03
2017-11-30T14:29:29.867Z,14.33
2017-11-30T14:31:57.401Z,11.97
2017-11-30T14:34:24.993Z,13.07
2017-11-30T14:36:52.524Z,11.57
2017-11-30T14:39:20.087Z,7.97
2017-11-30T14:41:47.627Z,9.77
2017-11-30T14:44:15.201Z,6.70
2017-11-30T14:46:42.740Z,7.10
2017-11-30T14:49:10.294Z,13.73
2017-11-30T14:51:38.588Z,9.00
2017-11-30T14:54:06.144Z,4.87
2017-11-30T14:56:33.678Z,5.37
2017-11-30T14:59:01.975Z,5.50
2017-11-30T15:01:29.536Z,7.40
2017-11-30T15:03:57.070Z,5.80
2017-11-30T15:06:25.411Z,8.50
2017-11-30T15:08:52.958Z,5.80
2017-11-30T15:11:20.529Z,7.90
2017-11-30T15:13:48.059Z,6.30
2017-11-30T15:16:15.633Z,7.80
2017-11-30T15:18:43.162Z,6.37
2017-11-30T15:21:10.734Z,7.67
2017-11-30T15:23:38.270Z,8.13
2017-11-30T15:26:05.861Z,9.73
2017-11-30T15:28:33.415Z,9.20
2017-11-30T15:31:00.987Z,8.17
2017-11-30T15:33:28.577Z,7.70
2017-11-30T15:35:56.110Z,14.70
2017-11-30T15:38:23.647Z,12.07
2017-11-30T15:40:51.203Z,12.07
2017-11-30T15:43:18.741Z,8.97
2017-11-30T15:45:47.078Z,14.83
2017-11-30T15:48:14.603Z,13.97
2017-11-30T15:50:42.191Z,11.30
2017-11-30T15:53:09.733Z,11.90
2017-11-30T15:55:37.335Z,12.40
2017-11-30T15:58:04.861Z,11.40
2017-11-30T16:00:32.402Z,16.17
2017-11-30T16:02:59.954Z,11.20
2017-11-30T16:05:28.242Z,11.47
2017-11-30T16:07:55.812Z,10.53
2017-11-30T16:10:23.364Z,10.40
2017-11-30T16:12:50.919Z,13.93
2017-11-30T16:15:18.455Z,9.77
2017-11-30T16:17:46.779Z,15.43
2017-11-30T16:20:14.305Z,15.90
2017-11-30T16:22:42.632Z,12.10
2017-11-30T16:25:10.162Z,14.43
2017-11-30T16:27:37.719Z,15.27
2017-11-30T16:30:05.266Z,16.60
2017-11-30T16:32:33.588Z,16.47
2017-11-30T16:35:01.115Z,14.57
2017-11-30T16:37:28.670Z,13.83
2017-11-30T16:39:56.204Z,11.75
2017-11-30T16:42:24.558Z,12.20
2017-11-30T16:44:52.086Z,14.10
2017-11-30T16:47:20.416Z,12.53
2017-11-30T16:49:48.421Z,13.20
2017-11-30T16:52:15.970Z,18.20
2017-11-30T16:54:43.494Z,14.03
2017-11-30T16:57:11.043Z,12.53
2017-11-30T16:59:38.578Z,11.13
2017-11-30T17:02:06.131Z,9.90
2017-11-30T17:04:33.665Z,11.73
2017-11-30T17:07:01.998Z,36.03
2017-11-30T17:09:29.545Z,14.93
2017-11-30T17:11:57.076Z,13.57
2017-11-30T17:14:24.636Z,11.27
2017-11-30T17:16:52.162Z,11.57
2017-11-30T17:19:20.489Z,12.87
2017-11-30T17:21:48.028Z,33.33
2017-11-30T17:24:15.591Z,66.57
2017-11-30T17:26:43.164Z,32.60
2017-11-30T17:29:10.711Z,13.23
2017-11-30T17:31:38.246Z,13.83
2017-11-30T17:34:06.578Z,12.63
2017-11-30T17:36:34.112Z,13.20
2017-11-30T17:39:01.673Z,10.10
2017-11-30T17:41:29.230Z,14.32
2017-11-30T17:43:56.785Z,15.47
2017-11-30T17:46:24.314Z,9.83
2017-11-30T17:48:54.637Z,12.03
2017-11-30T17:51:22.946Z,12.33
2017-11-30T17:53:50.507Z,14.73
2017-11-30T17:56:18.040Z,11.13
2017-11-30T17:58:46.363Z,13.33
2017-11-30T18:01:13.903Z,16.95
2017-11-30T18:03:41.471Z,15.20
2017-11-30T18:06:09.007Z,9.35
2017-11-30T18:08:37.331Z,12.67
2017-11-30T18:11:04.864Z,9.93
2017-11-30T18:13:32.423Z,11.00
2017-11-30T18:15:59.956Z,11.67
2017-11-30T18:18:27.542Z,10.93
2017-11-30T18:20:55.075Z,15.03
2017-11-30T18:23:23.374Z,11.80
2017-11-30T18:25:50.929Z,12.07
2017-11-30T18:28:18.470Z,15.57
2017-11-30T18:30:46.795Z,16.13
2017-11-30T18:33:14.330Z,12.43
2017-11-30T18:35:41.903Z,17.87
2017-11-30T18:38:09.446Z,13.77
2017-11-30T18:40:37.772Z,14.30
2017-11-30T18:43:05.314Z,16.35
2017-11-30T18:45:32.877Z,23.55
2017-11-30T18:48:00.422Z,10.60
2017-11-30T18:50:27.990Z,15.63
2017-11-30T18:52:55.530Z,12.03
2017-11-30T18:55:23.096Z,16.53
2017-11-30T18:57:51.398Z,19.80
2017-11-30T19:00:18.963Z,12.57
2017-11-30T19:02:46.535Z,20.85
2017-11-30T19:05:14.119Z,19.60
2017-11-30T19:07:42.437Z,22.58
2017-11-30T19:10:10.001Z,16.53
2017-11-30T19:12:37.540Z,15.10
2017-11-30T19:15:05.105Z,12.50
2017-11-30T19:17:32.646Z,13.95
2017-11-30T19:20:00.212Z,14.25
2017-11-30T19:22:27.750Z,16.83
2017-11-30T19:24:56.093Z,17.53
2017-11-30T19:27:23.642Z,19.30
2017-11-30T19:29:51.217Z,15.13
2017-11-30T19:32:18.763Z,11.32
2017-11-30T19:34:46.332Z,17.45
2017-11-30T19:37:13.873Z,19.92
2017-11-30T19:39:41.436Z,15.50
2017-11-30T19:42:08.982Z,16.37
2017-11-30T19:44:36.537Z,20.60
2017-11-30T19:47:04.097Z,18.33
2017-11-30T19:49:31.659Z,23.00
2017-11-30T19:51:59.205Z,22.75
2017-11-30T19:54:26.772Z,20.55
2017-11-30T19:56:54.318Z,17.08
2017-11-30T19:59:21.881Z,16.33
2017-11-30T20:01:49.422Z,23.23
2017-11-30T20:04:17.760Z,19.48
2017-11-30T20:06:45.305Z,29.23
2017-11-30T20:09:12.989Z,24.60
2017-11-30T20:11:40.546Z,21.05
2017-11-30T20:14:08.158Z,22.35
2017-11-30T20:16:35.707Z,23.90
2017-11-30T20:19:04.028Z,22.05
2017-11-30T20:21:31.627Z,21.47
2017-11-30T20:23:59.186Z,22.75
2017-11-30T20:26:26.771Z,22.35
2017-11-30T20:28:54.332Z,27.13
2017-11-30T20:31:22.666Z,16.80
2017-11-30T20:33:50.222Z,21.13
2017-11-30T20:36:17.797Z,25.95
2017-11-30T20:38:45.347Z,17.33
2017-11-30T20:41:12.920Z,23.70
2017-11-30T20:43:40.469Z,22.05
2017-11-30T20:46:08.024Z,22.63
2017-11-30T20:48:35.579Z,22.43
2017-11-30T20:51:03.147Z,20.52
2017-11-30T20:53:30.691Z,21.50
2017-11-30T20:55:58.271Z,18.85
2017-11-30T20:58:25.814Z,18.35
2017-11-30T21:00:53.378Z,23.20
2017-11-30T21:03:20.933Z,18.00
2017-11-30T21:05:48.506Z,18.80
2017-11-30T21:08:16.061Z,17.27
2017-11-30T21:10:43.622Z,16.20
2017-11-30T21:13:11.166Z,20.00
2017-11-30T21:15:38.732Z,19.83
2017-11-30T21:18:06.271Z,19.55
2017-11-30T21:20:33.845Z,19.98
2017-11-30T21:23:01.387Z,21.67
2017-11-30T21:25:28.965Z,20.63
2017-11-30T21:27:56.508Z,15.77
2017-11-30T21:30:24.090Z,18.70
2017-11-30T21:32:51.637Z,20.97
2017-11-30T21:35:19.202Z,19.97
2017-11-30T21:37:46.738Z,18.40
2017-11-30T21:40:14.383Z,13.20
2017-11-30T21:42:42.682Z,17.57
2017-11-30T21:45:10.246Z,19.73
2017-11-30T21:47:37.782Z,16.93
2017-11-30T21:50:06.119Z,23.23
2017-11-30T21:52:33.672Z,23.90
2017-11-30T21:55:01.251Z,22.47
2017-11-30T21:57:28.796Z,20.87
2017-11-30T21:59:56.368Z,18.20
2017-11-30T22:02:23.914Z,17.12
2017-11-30T22:04:51.477Z,18.73
2017-11-30T22:07:19.028Z,16.63
2017-11-30T22:09:46.598Z,21.85
2017-11-30T22:12:14.147Z,17.03
2017-11-30T22:14:41.693Z,15.43
2017-11-30T22:17:09.258Z,14.02
2017-11-30T22:19:36.795Z,16.00
2017-11-30T22:22:04.373Z,14.60
2017-11-30T22:24:31.915Z,12.30
2017-11-30T22:26:59.486Z,15.02
2017-11-30T22:29:27.076Z,18.57
2017-11-30T22:31:55.452Z,19.17
2017-11-30T22:34:22.991Z,19.33
2017-11-30T22:36:50.552Z,17.92
2017-11-30T22:39:18.086Z,17.67
2017-11-30T22:41:46.414Z,20.00
2017-11-30T22:44:13.965Z,16.40
2017-11-30T22:46:41.870Z,19.85
2017-11-30T22:49:10.176Z,14.00
2017-11-30T22:51:37.748Z,16.43
2017-11-30T22:54:05.298Z,20.60
2017-11-30T22:56:32.853Z,16.80
2017-11-30T22:59:00.516Z,15.43
2017-11-30T23:01:28.126Z,22.07
2017-11-30T23:03:55.666Z,18.73
2017-11-30T23:06:23.243Z,19.40
2017-11-30T23:08:50.776Z,16.60
2017-11-30T23:11:18.512Z,17.37
2017-11-30T23:13:46.062Z,15.90
2017-11-30T23:16:14.414Z,20.80
2017-11-30T23:18:42.019Z,20.90
2017-11-30T23:21:09.595Z,17.48
2017-11-30T23:23:37.210Z,14.33
2017-11-30T23:26:04.768Z,18.50
2017-11-30T23:28:32.466Z,16.47
2017-11-30T23:31:00.033Z,14.73
2017-11-30T23:33:27.572Z,16.50
2017-11-30T23:35:55.150Z,14.63
2017-11-30T23:38:22.683Z,16.13
2017-11-30T23:40:51.009Z,17.27
2017-11-30T23:43:18.551Z,17.10
2017-11-30T23:45:46.110Z,15.63
2017-11-30T23:48:13.651Z,25.70
2017-11-30T23:50:41.966Z,18.60
2017-11-30T23:53:09.501Z,17.45
2017-11-30T23:55:37.114Z,17.02
2017-11-30T23:58:04.621Z,15.03
